Latest Coastal Weather Observations for Ballina

IDN60701

Issued at 2:45 pm EST Sunday 20 April 2014 (issued every 10 minutes, with the page automatically refreshed every 10 minutes)

About coastal observations | Map of coastal stations | Coastal observations for NSW | Marine services | Other Formats
Station Details ID: 058198 Name: BALLINA AIRPORT AWS Lat: -28.84 Lon: 153.56 Height: 1.3 m
Data from the previous 72 hours. | See also: Recent months at Ballina
Date/Time
EST
Temp

°C
Wind Pressure Rain
since 9am
mm
Weather Cloud Vis
km
Sea
Height
m
Swell
Dir
 
Speed
knots
Gust
knots
hPa Trend Height
m
Period
s
Dir
20/02:30pm 25.1 ENE 9 13 1016.0 - 0.0 - - 10 - - - -
20/02:00pm 25.6 ENE 8 11 1016.1 - 0.0 - - 10 - - - -
20/01:30pm 25.3 ENE 8 11 1016.2 - 0.0 - - 10 - - - -
20/01:00pm 25.2 E 7 11 1016.3 - 0.0 - - 10 - - - -
20/12:30pm 25.2 E 7 10 1016.6 - 0.0 - Partly cloudy 10 - - - -
20/12:00pm 23.3 SSE 8 11 1017.2 - 0.0 - Partly cloudy 10 - - - -
20/11:30am 24.6 SE 7 11 1017.5 - 0.0 - - 10 - - - -
20/11:00am 25.3 N 5 8 1018.0 - 0.0 - - 10 - - - -
20/10:30am 24.6 WNW 4 6 1018.4 - 0.0 - - 10 - - - -
20/10:00am 23.7 SW 2 4 1018.6 - 0.0 - - 10 - - - -
20/09:30am 22.9 SW 3 5 1018.6 - 0.0 - - 10 - - - -
20/09:00am 21.6 WSW 5 7 1018.7 - 0.0 - - 10 - - - -
20/08:30am 20.8 W 3 4 1018.6 - 0.0 - - 10 - - - -
20/08:00am 18.6 WNW 2 4 1018.5 - 0.0 - - 10 - - - -
20/07:30am 16.5 CALM 0 0 1018.2 - 0.0 - - 10 - - - -
20/07:00am 14.1 CALM 0 0 1017.8 - 0.0 - - 10 - - - -
20/06:30am 12.6 CALM 0 0 1017.6 - 0.0 - - 10 - - - -
20/06:00am 12.3 CALM 0 0 1017.3 - 0.0 - - 10 - - - -
20/05:30am 12.5 NNW 1 3 1017.0 - 0.0 - - 10 - - - -
20/05:00am 13.1 CALM 0 0 1016.7 - 0.0 - Partly cloudy 10 - - - -
20/04:30am 14.1 CALM 0 0 1016.4 - 0.0 - Partly cloudy 10 - - - -
20/04:00am 14.5 CALM 0 0 1016.2 - 0.0 - Cloudy 10 - - - -
20/03:30am 14.8 CALM 0 0 1016.2 - 0.0 - Cloudy 10 - - - -
20/03:00am 14.7 CALM 0 0 1016.3 - 0.0 - Cloudy 10 - - - -
20/02:30am 14.5 CALM 0 0 1016.2 - 0.0 - Cloudy 10 - - - -
20/02:00am 14.0 CALM 0 0 1016.3 - 0.0 - Cloudy 10 - - - -
20/01:30am 14.1 N 0 0 1016.4 - 0.0 - Cloudy 10 - - - -
20/01:00am 13.8 CALM 0 0 1016.5 - 0.0 - Cloudy 10 - - - -
20/12:30am 13.7 CALM 0 0 1016.6 - 0.0 - Cloudy 10 - - - -
20/12:00am 13.9 N 0 0 1016.7 - 0.0 - Partly cloudy 10 - - - -
 
Date/Time
EST
Temp

°C
Wind Pressure Rain
since 9am
mm
Weather Cloud Vis
km
Sea
Height
m
Swell
Dir
 
Speed
knots
Gust
knots
hPa Trend Height
m
Period
s
Dir
19/11:30pm 14.1 CALM 0 0 1016.8 - 0.0 - Partly cloudy 10 - - - -
19/11:00pm 14.6 CALM 0 0 1016.8 - 0.0 - Cloudy 10 - - - -
19/10:30pm 13.9 CALM 0 0 1016.6 - 0.0 - Partly cloudy 10 - - - -
19/10:00pm 14.0 CALM 0 0 1016.6 - 0.0 - Partly cloudy 10 - - - -
19/09:30pm 14.9 CALM 0 0 1016.6 - 0.0 - Partly cloudy 10 - - - -
19/09:00pm 15.0 NNW 2 4 1016.6 - 0.0 - Mostly cloudy 10 - - - -
19/08:30pm 15.5 NW 3 4 1016.3 - 0.0 - Partly cloudy 10 - - - -
19/08:00pm 15.5 CALM 0 0 1016.0 - 0.0 - Partly cloudy 10 - - - -
19/07:30pm 15.7 NW 2 4 1015.7 - 0.0 - - 10 - - - -
19/07:00pm 15.6 E 1 4 1015.3 - 0.0 - - 10 - - - -
19/06:30pm 17.2 CALM 0 0 1014.9 - 0.0 - - 10 - - - -
19/06:00pm 17.9 CALM 0 0 1014.7 - 0.0 - - 10 - - - -
19/05:30pm 20.6 ESE 1 3 1014.6 - 0.0 - - 10 - - - -
19/05:00pm 22.2 SE 5 7 1014.1 - 0.0 - - 10 - - - -
19/04:30pm 23.4 SE 7 11 1014.0 - 0.0 - - 10 - - - -
19/04:00pm 24.0 SE 9 11 1013.7 - 0.0 - - 10 - - - -
19/03:30pm 24.4 SSE 11 14 1013.8 - 0.0 - - 10 - - - -
19/03:00pm 24.5 SSE 12 15 1013.8 - 0.0 - - 10 - - - -
19/02:30pm 24.9 S 10 15 1013.9 - 0.0 - - 10 - - - -
19/02:00pm 24.9 S 11 14 1013.9 - 0.0 - - 10 - - - -
19/01:30pm 25.0 SSE 11 15 1013.9 - 0.0 - - 10 - - - -
19/01:00pm 24.9 SSE 12 15 1014.2 - 0.0 - - 10 - - - -
19/12:30pm 25.2 SW 8 13 1014.6 - 0.0 - - 10 - - - -
19/12:00pm 25.2 SW 10 12 1015.0 - 0.0 - - 10 - - - -
19/11:30am 25.0 SSW 9 13 1015.5 - 0.0 - - 10 - - - -
19/11:00am 24.7 WSW 10 14 1015.9 - 0.0 - - 10 - - - -
19/10:30am 24.3 W 9 12 1016.3 - 0.0 - - 10 - - - -
19/10:00am 23.4 W 10 13 1016.4 - 0.0 - - 10 - - - -
19/09:30am 23.1 W 10 14 1016.5 - 0.0 - - 10 - - - -
19/09:00am 22.2 W 9 11 1016.6 - 0.0 - - 10 - - - -
19/08:30am 20.8 W 8 10 1016.6 - 0.0 - - 10 - - - -
19/08:00am 19.7 W 5 7 1016.6 - 0.0 - - 10 - - - -
19/07:30am 17.5 WSW 4 5 1016.5 - 0.0 - - 10 - - - -
19/07:00am 15.8 W 3 4 1016.4 - 0.0 - - 10 - - - -
19/06:30am 14.5 W 6 7 1016.3 - 0.0 - - 10 - - - -
19/06:00am 14.6 W 7 9 1016.1 - 0.0 - - 10 - - - -
19/05:30am 15.0 WSW 8 10 1015.9 - 0.0 - - 10 - - - -
19/05:12am 13.2 W 8 9 1015.7 - 0.0 - - 10 - - - -
19/05:00am 12.5 W 5 9 1015.6 - 0.0 - - 2 - - - -
19/04:30am 12.5 CALM 0 0 1015.2 - 0.0 - - 0.3 - - - -
19/04:00am 13.8 CALM 0 0 1015.0 - 0.0 - - 0.6 - - - -
19/03:41am 13.6 CALM 0 0 1015.1 - 0.0 - - 5 - - - -
19/03:30am 14.7 N 2 4 1015.2 - 0.0 - - 10 - - - -
19/03:00am 14.7 N 3 4 1015.3 - 0.0 - - 10 - - - -
19/02:42am 14.4 NW 1 4 1015.3 - 0.0 - - 8 - - - -
19/02:30am 13.5 CALM 0 0 1015.4 - 0.0 - - 2 - - - -
19/02:19am 14.9 CALM 0 0 1015.4 - 0.0 - - 4 - - - -
19/02:00am 15.0 CALM 0 3 1015.4 - 0.0 - - 10 - - - -
19/01:41am 14.2 CALM 0 0 1015.5 - 0.0 - - 10 - - - -
19/01:30am 14.0 CALM 0 0 1015.5 - 0.0 - - 2 - - - -
19/01:20am 13.9 CALM 0 3 1015.6 - 0.0 - - 4 - - - -
19/01:00am 14.3 W 4 5 1015.7 - 0.0 - - 10 - - - -
19/12:30am 14.4 W 5 5 1015.7 - 0.0 - - 10 - - - -
19/12:00am 14.4 CALM 0 0 1015.6 - 0.0 - - 10 - - - -
 
Date/Time
EST
Temp

°C
Wind Pressure Rain
since 9am
mm
Weather Cloud Vis
km
Sea
Height
m
Swell
Dir
 
Speed
knots
Gust
knots
hPa Trend Height
m
Period
s
Dir
18/11:37pm 14.3 CALM 0 0 1015.5 - 0.0 - - 10 - - - -
18/11:30pm 14.6 CALM 0 0 1015.6 - 0.0 - - 7 - - - -
18/11:14pm 14.8 CALM 0 0 1015.7 - 0.0 - - 5 - - - -
18/11:00pm 14.9 CALM 0 3 1015.8 - 0.0 - - 10 - - - -
18/10:30pm 14.9 N 3 4 1015.9 - 0.0 - - 10 - - - -
18/10:00pm 15.3 N 2 3 1015.9 - 0.0 - - 10 - - - -
18/09:30pm 15.5 N 3 3 1016.0 - 0.0 - - 10 - - - -
18/09:00pm 15.4 N 3 4 1015.9 - 0.0 - - 10 - - - -
18/08:30pm 16.3 N 4 5 1015.8 - 0.0 - - 10 - - - -
18/08:00pm 16.6 N 3 4 1015.8 - 0.0 - - 10 - - - -
18/07:30pm 18.2 N 5 6 1015.3 - 0.0 - - 10 - - - -
18/07:00pm 18.5 N 4 5 1015.1 - 0.0 - - 10 - - - -
18/06:30pm 19.1 N 5 7 1014.7 - 0.0 - - 10 - - - -
18/06:00pm 19.0 NNE 4 5 1014.5 - 0.0 - - 10 - - - -
18/05:30pm 20.7 NNE 4 5 1014.3 - 0.0 - - 10 - - - -
18/05:00pm 21.8 ENE 4 6 1014.0 - 0.0 - - 10 - - - -
18/04:30pm 22.9 E 5 7 1013.8 - 0.0 - - 10 - - - -
18/04:00pm 23.3 ESE 6 9 1013.5 - 0.0 - - 10 - - - -
18/03:30pm 23.6 SE 7 9 1013.5 - 0.0 - - 10 - - - -
18/03:00pm 23.9 ESE 7 10 1013.6 - 0.0 - - 10 - - - -
18/02:30pm 23.9 SE 7 10 1013.7 - 0.0 - Partly cloudy 10 - - - -
18/02:00pm 24.3 SE 9 11 1013.7 - 0.0 - Partly cloudy 10 - - - -
18/01:30pm 23.5 SE 7 11 1014.1 - 0.0 - Partly cloudy 10 - - - -
18/01:00pm 23.7 SSE 8 11 1014.1 - 0.0 - Partly cloudy 10 - - - -
18/12:30pm 24.9 W 8 14 1014.5 - 0.0 - Partly cloudy 10 - - - -
18/12:00pm 24.4 WSW 6 11 1015.0 - 0.0 - Mostly clear 10 - - - -
18/11:30am 24.3 SW 6 11 1015.7 - 0.0 - - 10 - - - -
18/11:00am 23.4 SW 6 11 1016.2 - 0.0 - - 10 - - - -
18/10:30am 23.2 WSW 5 9 1016.6 - 0.0 - - 10 - - - -
18/10:00am 22.1 SW 7 10 1017.1 - 0.0 - - 10 - - - -
18/09:30am 21.8 SSW 6 10 1017.3 - 0.0 - - 10 - - - -
18/09:00am 21.3 SW 6 10 1017.4 - 0.2 - - 10 - - - -
18/08:30am 20.7 SW 7 10 1017.5 - 0.2 - - 10 - - - -
18/08:00am 20.2 SW 5 7 1017.6 - 0.2 - - 10 - - - -
18/07:30am 18.2 W 6 7 1017.5 - 0.2 - - 10 - - - -
18/07:00am 16.6 WSW 6 7 1017.2 - 0.2 - - 10 - - - -
18/06:30am 14.6 W 7 7 1016.9 - 0.2 - - 10 - - - -
18/06:00am 15.3 WSW 7 9 1016.7 - 0.2 - - 10 - - - -
18/05:30am 15.2 W 7 9 1016.5 - 0.2 - - 10 - - - -
18/05:00am 15.4 WSW 7 8 1016.5 - 0.2 - - 10 - - - -
18/04:30am 15.0 W 6 7 1016.4 - 0.2 - - 10 - - - -
18/04:00am 14.9 W 5 6 1016.4 - 0.2 - - 10 - - - -
18/03:30am 15.2 W 5 6 1016.6 - 0.2 - - 10 - - - -
18/03:00am 15.0 W 6 7 1016.6 - 0.2 - - 10 - - - -
18/02:30am 15.6 W 6 7 1016.7 - 0.2 - - 10 - - - -
18/02:00am 16.1 W 7 8 1016.8 - 0.2 - - 10 - - - -
18/01:30am 15.9 W 6 7 1017.0 - 0.2 - - 10 - - - -
18/01:00am 16.3 W 6 7 1017.3 - 0.2 - - 10 - - - -
18/12:30am 16.5 WNW 5 6 1017.3 - 0.2 - Partly cloudy 10 - - - -
18/12:00am 16.9 W 6 7 1017.6 - 0.2 - Mostly cloudy 10 - - - -
 
Date/Time
EST
Temp

°C
Wind Pressure Rain
since 9am
mm
Weather Cloud Vis
km
Sea
Height
m
Swell
Dir
 
Speed
knots
Gust
knots
hPa Trend Height
m
Period
s
Dir
17/11:30pm 18.1 W 5 6 1017.9 - 0.2 - Partly cloudy 10 - - - -
17/11:00pm 18.0 WSW 8 11 1017.8 - 0.2 - Partly cloudy 10 - - - -
17/10:30pm 18.2 W 6 8 1017.8 - 0.2 - Partly cloudy 10 - - - -
17/10:00pm 18.8 WSW 5 6 1017.8 - 0.2 - Partly cloudy 10 - - - -
17/09:30pm 20.1 SSW 4 7 1017.9 - 0.0 - Partly cloudy 10 - - - -
17/09:00pm 18.1 W 6 7 1017.6 - 0.0 - Cloudy 10 - - - -
17/08:30pm 17.5 WNW 4 6 1017.4 - 0.0 - Partly cloudy 10 - - - -
17/08:00pm 17.8 SW 3 5 1017.3 - 0.0 - Partly cloudy 10 - - - -
17/07:30pm 19.5 S 5 7 1017.1 - 0.0 - Partly cloudy 10 - - - -
17/07:00pm 19.6 SSE 5 8 1016.6 - 0.0 - - 10 - - - -
17/06:30pm 19.6 S 5 6 1016.5 - 0.0 - - 10 - - - -
17/06:00pm 20.0 SSE 7 9 1016.2 - 0.0 - - 10 - - - -
17/05:30pm 20.5 SSE 7 10 1016.0 - 0.0 - - 10 - - - -
17/05:00pm 21.6 SSE 7 9 1015.8 - 0.0 - - 10 - - - -
17/04:30pm 22.5 SSE 9 11 1015.7 - 0.0 - - 10 - - - -
17/04:00pm 23.1 SSE 9 11 1015.5 - 0.0 - - 10 - - - -
17/03:30pm 23.2 SSE 10 13 1015.5 - 0.0 - - 10 - - - -
17/03:00pm 23.4 SSE 11 15 1015.5 - 0.0 - - 10 - - - -

Other Formats:

Comma delimited format used in spreadsheet applications
http://www.bom.gov.au/fwo/IDN60701/IDN60701.94596.axf

JavaScript Object Notation format (JSON) in row-major order
http://www.bom.gov.au/fwo/IDN60701/IDN60701.94596.json